Time;durP1;ratioP1;P1;durP2;ratioP2;P2;SDS_P1;SDS_P2;PMS_P1;PMS_P2;Temp;Humidity;BMP_temperature;BMP_pressure;BME280_temperature;BME280_humidity;BME280_pressure;Samples;Min_cycle;Max_cycle;Signal;HPM_P1;HPM_P2
2022/03/12 00:00:13;;;;;;;;;1.25;0.25;;;;;;;;5076213;28;45378;-69
2022/03/12 00:02:39;;;;;;;;;0.00;0.00;;;;;;;;5074654;28;45520;-68
2022/03/12 00:05:07;;;;;;;;;1.50;1.00;;;;;;;;5074731;28;46368;-68
2022/03/12 00:07:33;;;;;;;;;0.00;0.00;;;;;;;;5070173;28;48214;-69
2022/03/12 00:09:58;;;;;;;;;0.00;0.00;;;;;;;;5077138;27;45490;-68
2022/03/12 00:12:25;;;;;;;;;0.75;0.75;;;;;;;;5095393;27;45481;-69
2022/03/12 00:14:50;;;;;;;;;0.00;0.00;;;;;;;;5096241;27;46190;-69
2022/03/12 00:17:16;;;;;;;;;0.00;0.00;;;;;;;;5094842;27;45472;-68
2022/03/12 00:19:41;;;;;;;;;1.00;1.00;;;;;;;;5095360;27;45284;-69
2022/03/12 00:22:08;;;;;;;;;0.00;0.00;;;;;;;;5092253;27;45524;-69
2022/03/12 00:24:34;;;;;;;;;0.00;0.00;;;;;;;;5093457;27;47415;-69
2022/03/12 00:27:00;;;;;;;;;0.75;0.75;;;;;;;;5095252;27;45335;-69
2022/03/12 00:29:25;;;;;;;;;1.25;0.25;;;;;;;;5095217;27;45403;-69
2022/03/12 00:31:53;;;;;;;;;0.00;0.00;;;;;;;;5094835;27;45350;-69
2022/03/12 00:34:18;;;;;;;;;2.25;1.00;;;;;;;;5094575;27;46207;-68
2022/03/12 00:36:44;;;;;;;;;0.00;0.00;;;;;;;;5094914;27;46392;-69
2022/03/12 00:39:10;;;;;;;;;0.50;0.50;;;;;;;;5096123;27;45291;-69
2022/03/12 00:41:36;;;;;;;;;1.00;0.00;;;;;;;;5096637;27;45431;-69
2022/03/12 00:44:01;;;;;;;;;2.33;0.33;;;;;;;;5098050;27;46330;-70
2022/03/12 00:46:27;;;;;;;;;0.00;0.00;;;;;;;;5098606;27;45950;-69
2022/03/12 00:48:52;;;;;;;;;0.50;0.50;;;;;;;;5098398;27;45627;-69
2022/03/12 00:51:17;;;;;;;;;0.00;0.00;;;;;;;;5098709;27;45588;-69
2022/03/12 00:53:43;;;;;;;;;0.00;0.00;;;;;;;;5098755;27;45651;-68
2022/03/12 00:56:08;;;;;;;;;0.00;0.00;;;;;;;;5098300;27;45659;-69
2022/03/12 00:58:37;;;;;;;;;0.00;0.00;;;;;;;;5098600;27;45559;-69
2022/03/12 01:01:04;;;;;;;;;0.00;0.00;;;;;;;;5098558;27;45437;-70
2022/03/12 01:03:29;;;;;;;;;0.00;0.00;;;;;;;;5098266;27;47210;-69
2022/03/12 01:05:57;;;;;;;;;0.25;0.25;;;;;;;;5094484;27;45420;-69
2022/03/12 01:08:26;;;;;;;;;0.50;0.50;;;;;;;;5098614;27;45467;-69
2022/03/12 01:10:52;;;;;;;;;0.00;0.00;;;;;;;;5097740;27;45385;-69
2022/03/12 01:13:17;;;;;;;;;1.00;1.00;;;;;;;;5098179;27;45362;-69
2022/03/12 01:15:42;;;;;;;;;0.75;0.00;;;;;;;;5098174;27;45446;-69
2022/03/12 01:18:13;;;;;;;;;1.00;1.00;;;;;;;;5099030;27;45345;-68
2022/03/12 01:20:38;;;;;;;;;0.00;0.00;;;;;;;;5098287;27;45349;-69
2022/03/12 01:23:04;;;;;;;;;0.00;0.00;;;;;;;;5097778;27;45517;-69
2022/03/12 01:25:29;;;;;;;;;0.50;0.50;;;;;;;;5079200;27;45351;-68
2022/03/12 01:27:55;;;;;;;;;1.75;0.00;;;;;;;;5097921;27;45386;-69
2022/03/12 01:30:25;;;;;;;;;1.50;1.00;;;;;;;;5080306;27;45430;-69
2022/03/12 01:32:50;;;;;;;;;0.25;0.25;;;;;;;;5097393;27;46235;-69
2022/03/12 01:35:16;;;;;;;;;0.00;0.00;;;;;;;;5097541;27;45381;-69
2022/03/12 01:37:41;;;;;;;;;2.00;0.25;;;;;;;;5097526;27;45375;-69
2022/03/12 01:40:06;;;;;;;;;0.00;0.00;;;;;;;;5098125;27;45424;-69
2022/03/12 01:42:32;;;;;;;;;0.00;0.00;;;;;;;;5097550;27;45891;-69
2022/03/12 01:44:57;;;;;;;;;0.25;0.25;;;;;;;;5097991;27;45343;-69
2022/03/12 01:47:22;;;;;;;;;0.00;0.00;;;;;;;;5097510;27;45772;-69
2022/03/12 01:49:51;;;;;;;;;2.00;0.75;;;;;;;;5092833;27;45597;-69
2022/03/12 01:52:17;;;;;;;;;2.00;1.00;;;;;;;;5097231;27;46493;-69
2022/03/12 01:54:42;;;;;;;;;0.00;0.00;;;;;;;;5097069;27;45378;-70
2022/03/12 01:57:09;;;;;;;;;1.25;0.00;;;;;;;;5098564;27;45484;-69
2022/03/12 01:59:34;;;;;;;;;0.00;0.00;;;;;;;;5097649;27;45472;-69
2022/03/12 02:02:00;;;;;;;;;0.00;0.00;;;;;;;;5096808;27;45798;-69
2022/03/12 02:04:29;;;;;;;;;0.50;0.50;;;;;;;;5096825;27;45433;-70
2022/03/12 02:06:58;;;;;;;;;0.25;0.25;;;;;;;;5097451;27;48841;-70
2022/03/12 02:09:23;;;;;;;;;2.00;0.00;;;;;;;;5097616;27;45460;-70
2022/03/12 02:11:50;;;;;;;;;1.75;0.00;;;;;;;;5096547;27;46085;-69
2022/03/12 02:14:17;;;;;;;;;0.00;0.00;;;;;;;;5097189;27;45447;-69
2022/03/12 02:17:01;;;;;;;;;1.00;0.00;;;;;;;;5096874;27;45451;-69
2022/03/12 02:19:28;;;;;;;;;0.00;0.00;;;;;;;;5097802;27;45481;-69
2022/03/12 02:21:53;;;;;;;;;0.00;0.00;;;;;;;;5097249;27;46432;-69
2022/03/12 02:24:20;;;;;;;;;1.00;1.00;;;;;;;;5097673;27;45447;-69
2022/03/12 02:26:45;;;;;;;;;0.00;0.00;;;;;;;;5097134;27;45394;-69
2022/03/12 02:29:12;;;;;;;;;0.00;0.00;;;;;;;;5097010;27;45342;-70
2022/03/12 02:31:42;;;;;;;;;0.00;0.00;;;;;;;;5096022;27;47306;-69
2022/03/12 02:34:10;;;;;;;;;0.00;0.00;;;;;;;;5097089;27;45393;-69
2022/03/12 02:36:35;;;;;;;;;0.00;0.00;;;;;;;;5082001;27;45429;-69
2022/03/12 02:39:03;;;;;;;;;0.00;0.00;;;;;;;;5097974;27;45461;-69
2022/03/12 02:41:28;;;;;;;;;0.00;0.00;;;;;;;;5096769;27;47099;-69
2022/03/12 02:43:53;;;;;;;;;0.00;0.00;;;;;;;;5096600;27;45423;-70
2022/03/12 02:46:19;;;;;;;;;0.00;0.00;;;;;;;;5096562;27;45484;-69
2022/03/12 02:48:49;;;;;;;;;2.00;0.00;;;;;;;;5096507;27;45353;-69
2022/03/12 02:51:16;;;;;;;;;0.00;0.00;;;;;;;;5093247;27;46241;-68
2022/03/12 02:53:41;;;;;;;;;1.00;0.00;;;;;;;;5096865;27;45517;-69
2022/03/12 02:56:06;;;;;;;;;0.00;0.00;;;;;;;;5096456;27;45436;-69
2022/03/12 02:58:32;;;;;;;;;0.00;0.00;;;;;;;;5097826;27;45425;-74
2022/03/12 03:00:57;;;;;;;;;0.75;0.75;;;;;;;;5096611;27;46241;-74
2022/03/12 03:03:22;;;;;;;;;1.00;1.00;;;;;;;;5096621;27;45494;-74
2022/03/12 03:05:48;;;;;;;;;0.00;0.00;;;;;;;;5096796;27;45349;-74
2022/03/12 03:08:21;;;;;;;;;2.00;1.00;;;;;;;;5096598;27;45492;-74
2022/03/12 03:10:47;;;;;;;;;0.00;0.00;;;;;;;;5096510;27;46344;-74
2022/03/12 03:13:16;;;;;;;;;0.25;0.25;;;;;;;;5096436;27;45445;-74
2022/03/12 03:15:46;;;;;;;;;0.00;0.00;;;;;;;;5096502;27;45464;-74
2022/03/12 03:18:12;;;;;;;;;2.75;0.00;;;;;;;;5097396;27;45326;-74
2022/03/12 03:20:37;;;;;;;;;1.00;0.00;;;;;;;;5091278;27;47051;-75
2022/03/12 03:23:05;;;;;;;;;0.00;0.00;;;;;;;;5096096;27;45386;-74
2022/03/12 03:25:31;;;;;;;;;0.25;0.25;;;;;;;;5096340;27;45471;-74
2022/03/12 03:27:56;;;;;;;;;0.00;0.00;;;;;;;;5095970;27;45475;-74
2022/03/12 03:30:21;;;;;;;;;0.00;0.00;;;;;;;;5096028;27;46102;-74
2022/03/12 03:32:46;;;;;;;;;1.00;1.00;;;;;;;;5096211;27;45511;-73
2022/03/12 03:35:12;;;;;;;;;0.00;0.00;;;;;;;;5096197;27;45494;-73
2022/03/12 03:37:37;;;;;;;;;0.00;0.00;;;;;;;;5096300;27;45561;-74
2022/03/12 03:40:03;;;;;;;;;2.00;0.00;;;;;;;;5096166;27;46123;-73
2022/03/12 03:42:28;;;;;;;;;0.00;0.00;;;;;;;;5096133;27;46739;-74
2022/03/12 03:44:57;;;;;;;;;0.00;0.00;;;;;;;;5096022;27;46299;-74
2022/03/12 03:47:22;;;;;;;;;2.00;1.00;;;;;;;;5094684;27;45523;-74
2022/03/12 03:49:48;;;;;;;;;0.00;0.00;;;;;;;;5091137;27;45477;-74
2022/03/12 03:52:13;;;;;;;;;0.00;0.00;;;;;;;;5083202;27;45448;-74
2022/03/12 03:54:40;;;;;;;;;0.00;0.00;;;;;;;;5095059;27;45240;-74
2022/03/12 03:57:05;;;;;;;;;0.25;0.25;;;;;;;;5096494;27;45314;-73
2022/03/12 03:59:31;;;;;;;;;0.00;0.00;;;;;;;;5094876;27;46379;-73
2022/03/12 04:01:56;;;;;;;;;0.00;0.00;;;;;;;;5095317;27;45301;-74
2022/03/12 04:04:21;;;;;;;;;0.00;0.00;;;;;;;;5095549;27;45985;-74
2022/03/12 04:06:47;;;;;;;;;0.25;0.00;;;;;;;;5095317;27;45375;-74
2022/03/12 04:09:12;;;;;;;;;0.00;0.00;;;;;;;;5096205;27;45897;-74
2022/03/12 04:11:38;;;;;;;;;0.00;0.00;;;;;;;;5095210;27;45312;-74
2022/03/12 04:14:05;;;;;;;;;0.00;0.00;;;;;;;;5095568;27;45486;-74
2022/03/12 04:16:31;;;;;;;;;0.00;0.00;;;;;;;;5094300;27;45294;-74
2022/03/12 04:18:57;;;;;;;;;0.25;0.25;;;;;;;;5095258;27;47043;-74
2022/03/12 04:21:22;;;;;;;;;0.00;0.00;;;;;;;;5096216;27;45360;-74
2022/03/12 04:23:49;;;;;;;;;0.00;0.00;;;;;;;;5091114;27;45402;-74
2022/03/12 04:26:14;;;;;;;;;0.75;0.25;;;;;;;;5095062;27;45222;-74
2022/03/12 04:28:40;;;;;;;;;0.00;0.00;;;;;;;;5095078;27;46180;-74
2022/03/12 04:31:06;;;;;;;;;0.00;0.00;;;;;;;;5095356;27;45507;-74
2022/03/12 04:33:32;;;;;;;;;0.00;0.00;;;;;;;;5094794;27;45436;-74
2022/03/12 04:35:58;;;;;;;;;1.00;0.00;;;;;;;;5094030;27;45459;-74
2022/03/12 04:38:25;;;;;;;;;0.00;0.00;;;;;;;;5094991;27;45599;-73
2022/03/12 04:40:51;;;;;;;;;1.00;1.00;;;;;;;;5094687;27;45299;-74
2022/03/12 04:43:16;;;;;;;;;1.00;1.00;;;;;;;;5090081;27;45667;-74
2022/03/12 04:45:42;;;;;;;;;1.50;0.00;;;;;;;;5094125;27;45561;-74
2022/03/12 04:48:10;;;;;;;;;0.00;0.00;;;;;;;;5095957;27;46393;-74
2022/03/12 04:50:35;;;;;;;;;1.00;1.00;;;;;;;;5094793;27;45400;-74
2022/03/12 04:53:01;;;;;;;;;4.00;0.00;;;;;;;;5094974;27;45608;-74
2022/03/12 04:55:27;;;;;;;;;0.00;0.00;;;;;;;;5094689;27;45523;-73
2022/03/12 04:57:53;;;;;;;;;0.00;0.00;;;;;;;;5094231;27;46163;-73
2022/03/12 05:00:26;;;;;;;;;0.00;0.00;;;;;;;;5095287;27;45401;-74
2022/03/12 05:03:01;;;;;;;;;0.00;0.00;;;;;;;;5094794;27;45414;-73
2022/03/12 05:05:26;;;;;;;;;0.00;0.00;;;;;;;;5094966;27;45464;-74
2022/03/12 05:07:51;;;;;;;;;0.00;0.00;;;;;;;;5089743;27;45443;-74
2022/03/12 05:10:17;;;;;;;;;0.00;0.00;;;;;;;;5094048;27;45356;-74
2022/03/12 05:12:43;;;;;;;;;0.00;0.00;;;;;;;;5094593;27;45417;-74
2022/03/12 05:15:11;;;;;;;;;0.00;0.00;;;;;;;;5077580;27;45629;-74
2022/03/12 05:17:45;;;;;;;;;0.00;0.00;;;;;;;;5094400;27;47081;-74
2022/03/12 05:20:11;;;;;;;;;0.00;0.00;;;;;;;;5094681;27;45663;-74
2022/03/12 05:22:36;;;;;;;;;0.00;0.00;;;;;;;;5094498;27;45579;-74
2022/03/12 05:25:02;;;;;;;;;0.00;0.00;;;;;;;;5093928;27;45859;-74
2022/03/12 05:27:27;;;;;;;;;0.00;0.00;;;;;;;;5095489;27;46992;-74
2022/03/12 05:29:54;;;;;;;;;1.00;0.00;;;;;;;;5099260;27;45599;-74
2022/03/12 05:32:19;;;;;;;;;0.25;0.25;;;;;;;;5088834;27;45641;-73
2022/03/12 05:34:44;;;;;;;;;0.00;0.00;;;;;;;;5089784;27;45292;-74
2022/03/12 05:37:10;;;;;;;;;0.25;0.00;;;;;;;;5097864;27;45449;-74
2022/03/12 05:39:36;;;;;;;;;0.00;0.00;;;;;;;;5098003;27;45409;-74
2022/03/12 05:42:03;;;;;;;;;0.00;0.00;;;;;;;;5099213;27;45285;-74
2022/03/12 05:44:29;;;;;;;;;0.00;0.00;;;;;;;;5097863;27;45610;-74
2022/03/12 05:46:54;;;;;;;;;0.50;0.00;;;;;;;;5092634;27;45274;-74
2022/03/12 05:49:20;;;;;;;;;0.00;0.00;;;;;;;;5091493;27;45401;-74
2022/03/12 05:51:45;;;;;;;;;0.25;0.00;;;;;;;;5097575;27;45283;-74
2022/03/12 05:54:10;;;;;;;;;1.00;0.00;;;;;;;;5082663;27;45285;-74
2022/03/12 05:56:40;;;;;;;;;0.00;0.00;;;;;;;;5096113;27;46018;-74
2022/03/12 05:59:05;;;;;;;;;0.00;0.00;;;;;;;;5097470;27;45512;-74
2022/03/12 06:01:30;;;;;;;;;0.00;0.00;;;;;;;;5097220;27;45393;-74
2022/03/12 06:03:55;;;;;;;;;0.00;0.00;;;;;;;;5097191;27;45580;-74
2022/03/12 06:06:27;;;;;;;;;0.00;0.00;;;;;;;;5097951;27;45376;-74
2022/03/12 06:08:58;;;;;;;;;0.00;0.00;;;;;;;;5097206;27;45490;-74
2022/03/12 06:11:25;;;;;;;;;0.00;0.00;;;;;;;;5097443;27;45392;-74
2022/03/12 06:13:57;;;;;;;;;0.00;0.00;;;;;;;;5096834;27;45439;-74
2022/03/12 06:16:22;;;;;;;;;0.50;0.00;;;;;;;;5097070;27;46223;-74
2022/03/12 06:18:48;;;;;;;;;0.00;0.00;;;;;;;;5097855;27;45493;-74
2022/03/12 06:21:13;;;;;;;;;0.50;0.50;;;;;;;;5098607;27;45328;-74
2022/03/12 06:23:38;;;;;;;;;1.00;0.00;;;;;;;;5097599;27;45506;-73
2022/03/12 06:26:04;;;;;;;;;0.50;0.50;;;;;;;;5092581;27;46409;-73
2022/03/12 06:28:30;;;;;;;;;1.00;1.00;;;;;;;;5097294;27;45636;-74
2022/03/12 06:30:55;;;;;;;;;0.00;0.00;;;;;;;;5097684;27;45562;-74
2022/03/12 06:33:22;;;;;;;;;0.00;0.00;;;;;;;;5097206;27;45450;-74
2022/03/12 06:35:47;;;;;;;;;0.00;0.00;;;;;;;;5097393;27;46387;-74
2022/03/12 06:38:14;;;;;;;;;0.00;0.00;;;;;;;;5096116;27;45604;-74
2022/03/12 06:40:39;;;;;;;;;0.50;0.00;;;;;;;;5096223;27;45285;-74
2022/03/12 06:43:09;;;;;;;;;0.00;0.00;;;;;;;;5097567;27;45407;-74
2022/03/12 06:45:35;;;;;;;;;0.00;0.00;;;;;;;;5096807;27;46627;-75
2022/03/12 06:48:00;;;;;;;;;0.00;0.00;;;;;;;;5097680;27;45452;-75
2022/03/12 06:50:26;;;;;;;;;0.00;0.00;;;;;;;;5096611;27;45704;-74
2022/03/12 06:52:52;;;;;;;;;0.25;0.00;;;;;;;;5096142;27;45388;-74
2022/03/12 06:55:19;;;;;;;;;1.75;0.25;;;;;;;;5096532;27;46131;-75
2022/03/12 06:57:45;;;;;;;;;3.25;0.25;;;;;;;;5096340;27;45413;-75
2022/03/12 07:00:12;;;;;;;;;0.50;0.50;;;;;;;;5097669;27;45412;-74
2022/03/12 07:02:37;;;;;;;;;0.75;0.75;;;;;;;;5096787;27;45376;-74
2022/03/12 07:05:03;;;;;;;;;1.00;1.00;;;;;;;;5097023;27;46567;-74
2022/03/12 07:07:28;;;;;;;;;0.00;0.00;;;;;;;;5096038;27;45543;-74
2022/03/12 07:09:53;;;;;;;;;0.00;0.00;;;;;;;;5098842;27;45587;-74
2022/03/12 07:12:19;;;;;;;;;2.00;0.00;;;;;;;;5097752;27;45378;-74
2022/03/12 07:14:45;;;;;;;;;0.00;0.00;;;;;;;;5078878;27;46490;-74
2022/03/12 07:17:10;;;;;;;;;1.50;0.00;;;;;;;;5096127;27;45389;-74
2022/03/12 07:19:35;;;;;;;;;0.00;0.00;;;;;;;;5095803;27;45480;-75
2022/03/12 07:22:01;;;;;;;;;0.00;0.00;;;;;;;;5095341;27;45332;-74
2022/03/12 07:24:26;;;;;;;;;1.00;0.00;;;;;;;;5096216;27;46185;-74
2022/03/12 07:26:51;;;;;;;;;0.00;0.00;;;;;;;;5096840;27;45436;-74
2022/03/12 07:29:16;;;;;;;;;0.00;0.00;;;;;;;;5096030;27;45435;-75
2022/03/12 07:31:42;;;;;;;;;0.00;0.00;;;;;;;;5098801;27;45577;-74
2022/03/12 07:34:07;;;;;;;;;0.33;0.33;;;;;;;;5077764;27;46408;-70
2022/03/12 07:36:33;;;;;;;;;2.00;1.00;;;;;;;;5095533;27;45381;-71
2022/03/12 07:38:58;;;;;;;;;0.00;0.00;;;;;;;;5094706;27;45400;-71
2022/03/12 07:41:24;;;;;;;;;0.00;0.00;;;;;;;;5095707;27;45520;-71
2022/03/12 07:43:49;;;;;;;;;0.00;0.00;;;;;;;;5095295;27;45537;-71
2022/03/12 07:46:14;;;;;;;;;2.00;0.00;;;;;;;;5077542;27;45370;-71
2022/03/12 07:48:41;;;;;;;;;0.00;0.00;;;;;;;;5095024;27;45663;-71
2022/03/12 07:51:06;;;;;;;;;0.50;0.00;;;;;;;;5095797;27;45276;-71
2022/03/12 07:53:32;;;;;;;;;0.00;0.00;;;;;;;;5095056;27;46331;-71
2022/03/12 07:55:57;;;;;;;;;0.00;0.00;;;;;;;;5095416;27;45404;-71
2022/03/12 07:58:23;;;;;;;;;0.00;0.00;;;;;;;;5095302;27;45536;-71
2022/03/12 08:00:48;;;;;;;;;0.75;0.00;;;;;;;;5095667;27;45423;-71
2022/03/12 08:03:14;;;;;;;;;1.25;0.00;;;;;;;;5080171;27;46545;-70
2022/03/12 08:05:39;;;;;;;;;1.25;1.25;;;;;;;;5094766;27;45451;-71
2022/03/12 08:08:05;;;;;;;;;0.00;0.00;;;;;;;;5094859;27;45488;-71
2022/03/12 08:11:24;;;;;;;;;0.00;0.00;;;;;;;;5095218;27;45448;-70
2022/03/12 08:13:18;;;;;;;;;1.00;1.00;;;;;;;;5082685;27;46379;-70
2022/03/12 08:15:45;;;;;;;;;2.00;1.00;;;;;;;;5094881;27;45389;-69
2022/03/12 08:18:11;;;;;;;;;0.00;0.00;;;;;;;;5096122;27;45420;-70
2022/03/12 08:20:37;;;;;;;;;0.00;0.00;;;;;;;;5093778;27;45449;-70
2022/03/12 08:23:02;;;;;;;;;0.75;0.75;;;;;;;;5095029;27;46444;-70
2022/03/12 08:25:28;;;;;;;;;0.75;0.75;;;;;;;;5094650;27;45543;-70
2022/03/12 08:27:53;;;;;;;;;0.00;0.00;;;;;;;;5094882;27;45410;-70
2022/03/12 08:30:20;;;;;;;;;0.00;0.00;;;;;;;;5096009;27;45423;-70
2022/03/12 08:32:45;;;;;;;;;0.00;0.00;;;;;;;;5094496;27;45414;-71
2022/03/12 08:35:12;;;;;;;;;0.00;0.00;;;;;;;;5094680;27;45586;-70
2022/03/12 08:37:39;;;;;;;;;2.25;0.00;;;;;;;;5095132;27;45309;-70
2022/03/12 08:40:06;;;;;;;;;0.00;0.00;;;;;;;;5094625;27;45473;-70
2022/03/12 08:42:31;;;;;;;;;1.00;1.00;;;;;;;;5095040;27;46087;-70
2022/03/12 08:44:57;;;;;;;;;0.00;0.00;;;;;;;;5095499;27;45482;-70
2022/03/12 08:47:22;;;;;;;;;1.00;0.00;;;;;;;;5094226;27;45500;-70
2022/03/12 08:49:48;;;;;;;;;1.00;0.00;;;;;;;;5094440;27;45492;-70
2022/03/12 08:52:13;;;;;;;;;0.00;0.00;;;;;;;;5094919;27;45513;-70
2022/03/12 08:54:38;;;;;;;;;0.00;0.00;;;;;;;;5077910;27;45283;-70
2022/03/12 08:57:05;;;;;;;;;1.25;1.25;;;;;;;;5095489;27;45283;-70
2022/03/12 08:59:30;;;;;;;;;0.00;0.00;;;;;;;;5094465;27;45511;-71
2022/03/12 09:01:55;;;;;;;;;2.00;0.00;;;;;;;;5110911;27;48224;-71
2022/03/12 09:04:20;;;;;;;;;0.00;0.00;;;;;;;;5098713;27;45528;-71
2022/03/12 09:06:46;;;;;;;;;1.00;0.00;;;;;;;;5098089;27;45364;-71
2022/03/12 09:09:12;;;;;;;;;1.00;1.00;;;;;;;;5098695;27;45296;-71
2022/03/12 09:11:37;;;;;;;;;0.00;0.00;;;;;;;;5098603;27;45280;-71
2022/03/12 09:14:03;;;;;;;;;0.00;0.00;;;;;;;;5097905;27;45275;-70
2022/03/12 09:16:30;;;;;;;;;0.00;0.00;;;;;;;;5097659;27;45384;-70
2022/03/12 09:18:55;;;;;;;;;1.00;1.00;;;;;;;;5098203;27;45552;-71
2022/03/12 09:21:20;;;;;;;;;0.25;0.25;;;;;;;;5099160;27;46061;-70
2022/03/12 09:23:45;;;;;;;;;0.00;0.00;;;;;;;;5098470;27;45430;-71
2022/03/12 09:26:13;;;;;;;;;0.75;0.75;;;;;;;;5098213;27;45630;-71
2022/03/12 09:28:39;;;;;;;;;0.00;0.00;;;;;;;;5098820;27;45628;-70
2022/03/12 09:31:06;;;;;;;;;0.50;0.50;;;;;;;;5095584;27;45650;-71
2022/03/12 09:33:32;;;;;;;;;0.50;0.00;;;;;;;;5095809;27;45733;-70
2022/03/12 09:35:57;;;;;;;;;0.25;0.25;;;;;;;;5084823;27;45435;-70
2022/03/12 09:38:23;;;;;;;;;2.00;0.50;;;;;;;;5094156;27;45610;-71
2022/03/12 09:40:48;;;;;;;;;0.00;0.00;;;;;;;;5098181;27;45353;-69
2022/03/12 09:43:13;;;;;;;;;2.00;0.25;;;;;;;;5097603;27;45310;-71
2022/03/12 09:45:38;;;;;;;;;0.00;0.00;;;;;;;;5099821;27;45550;-70
2022/03/12 09:48:05;;;;;;;;;1.00;0.00;;;;;;;;5098434;27;45448;-70
2022/03/12 09:50:30;;;;;;;;;0.00;0.00;;;;;;;;5096491;27;46564;-70
2022/03/12 09:52:56;;;;;;;;;3.25;2.00;;;;;;;;5097273;27;45481;-70
2022/03/12 09:55:22;;;;;;;;;1.75;0.00;;;;;;;;5096974;27;45907;-70
2022/03/12 09:57:48;;;;;;;;;1.50;0.00;;;;;;;;5082597;27;45588;-70
2022/03/12 10:00:14;;;;;;;;;1.00;0.00;;;;;;;;5102059;27;46970;-70
2022/03/12 10:02:40;;;;;;;;;3.25;2.00;;;;;;;;5096197;27;45525;-70
2022/03/12 10:05:06;;;;;;;;;1.00;1.00;;;;;;;;5097005;27;45424;-70
2022/03/12 10:07:32;;;;;;;;;0.75;0.25;;;;;;;;5097156;27;45403;-71
2022/03/12 10:09:57;;;;;;;;;1.00;1.00;;;;;;;;5096322;27;46392;-71
2022/03/12 10:12:23;;;;;;;;;2.00;0.00;;;;;;;;5097905;27;45435;-71
2022/03/12 10:14:49;;;;;;;;;1.75;0.75;;;;;;;;5096177;27;45645;-71
2022/03/12 10:17:15;;;;;;;;;0.75;0.00;;;;;;;;5092274;27;45441;-71
2022/03/12 10:19:43;;;;;;;;;1.00;1.00;;;;;;;;5097036;27;46205;-72
2022/03/12 10:22:09;;;;;;;;;3.25;1.25;;;;;;;;5096270;27;45503;-72
2022/03/12 10:24:35;;;;;;;;;2.00;1.00;;;;;;;;5095515;27;45788;-71
2022/03/12 10:27:00;;;;;;;;;0.00;0.00;;;;;;;;5097359;27;45344;-70
2022/03/12 10:29:26;;;;;;;;;1.00;1.00;;;;;;;;5095717;27;46467;-72
2022/03/12 10:31:51;;;;;;;;;2.75;2.00;;;;;;;;5095198;27;46013;-72
2022/03/12 10:34:19;;;;;;;;;7.50;6.00;;;;;;;;5111212;27;45620;-71
2022/03/12 10:36:45;;;;;;;;;10.25;7.00;;;;;;;;5095828;27;45560;-71
2022/03/12 10:39:10;;;;;;;;;10.00;10.00;;;;;;;;5096927;27;45561;-72
2022/03/12 10:41:37;;;;;;;;;13.75;9.50;;;;;;;;5096544;27;45479;-71
2022/03/12 10:44:03;;;;;;;;;15.75;12.50;;;;;;;;5096492;27;45406;-72
2022/03/12 10:46:29;;;;;;;;;14.00;10.50;;;;;;;;5091918;27;45513;-72
2022/03/12 10:48:58;;;;;;;;;16.00;10.75;;;;;;;;5095770;27;47323;-72
2022/03/12 10:51:27;;;;;;;;;11.25;10.00;;;;;;;;5096005;27;45358;-72
2022/03/12 10:54:04;;;;;;;;;12.50;12.50;;;;;;;;5096627;27;45615;-72
2022/03/12 10:56:48;;;;;;;;;13.00;11.50;;;;;;;;5095889;27;45469;-72
2022/03/12 10:59:18;;;;;;;;;15.75;12.50;;;;;;;;5095362;27;47210;-71
2022/03/12 11:01:51;;;;;;;;;14.75;13.25;;;;;;;;5091410;27;45323;-72
2022/03/12 11:04:18;;;;;;;;;12.75;10.50;;;;;;;;5095873;27;45288;-72
2022/03/12 11:06:43;;;;;;;;;12.25;9.75;;;;;;;;5096079;27;45369;-74
2022/03/12 11:09:12;;;;;;;;;12.75;11.00;;;;;;;;5096532;27;46605;-73
2022/03/12 11:11:39;;;;;;;;;14.50;11.25;;;;;;;;5096146;27;45379;-73
2022/03/12 11:14:06;;;;;;;;;9.50;9.50;;;;;;;;5095082;27;45456;-73
2022/03/12 11:16:35;;;;;;;;;12.00;11.00;;;;;;;;5090620;27;45316;-73
2022/03/12 11:19:01;;;;;;;;;13.00;11.00;;;;;;;;5098437;27;46386;-73
2022/03/12 11:21:29;;;;;;;;;11.25;10.00;;;;;;;;5096256;27;45371;-73
2022/03/12 11:23:55;;;;;;;;;15.00;12.25;;;;;;;;5094967;27;45436;-73
2022/03/12 11:26:20;;;;;;;;;13.50;11.25;;;;;;;;5094506;27;45480;-72
2022/03/12 11:28:56;;;;;;;;;11.00;10.25;;;;;;;;5094048;27;45370;-72
2022/03/12 11:31:36;;;;;;;;;17.50;14.00;;;;;;;;5095600;27;45703;-73
2022/03/12 11:34:11;;;;;;;;;13.00;11.75;;;;;;;;5083841;27;45358;-72
2022/03/12 11:36:36;;;;;;;;;17.00;13.50;;;;;;;;5095114;27;45511;-72
2022/03/12 11:39:02;;;;;;;;;21.25;14.50;;;;;;;;5096009;27;46370;-72
2022/03/12 11:41:27;;;;;;;;;17.00;14.00;;;;;;;;5090253;27;45582;-72
2022/03/12 11:43:53;;;;;;;;;17.00;14.75;;;;;;;;5094740;27;45836;-72
2022/03/12 11:46:18;;;;;;;;;20.50;17.25;;;;;;;;5095151;27;45483;-72
2022/03/12 11:48:43;;;;;;;;;20.50;19.00;;;;;;;;5094643;27;48003;-72
2022/03/12 11:51:16;;;;;;;;;19.75;18.25;;;;;;;;5096197;27;45397;-71
2022/03/12 11:53:44;;;;;;;;;23.00;21.00;;;;;;;;5090054;27;45518;-72
2022/03/12 11:56:09;;;;;;;;;23.50;20.00;;;;;;;;5093840;27;45491;-72
2022/03/12 11:58:36;;;;;;;;;22.00;20.00;;;;;;;;5094265;27;46528;-72
2022/03/12 12:01:01;;;;;;;;;25.25;23.25;;;;;;;;5094733;27;45425;-72
2022/03/12 12:03:26;;;;;;;;;23.75;19.50;;;;;;;;5077153;27;45429;-73
2022/03/12 12:05:52;;;;;;;;;20.50;18.00;;;;;;;;5095802;27;45441;-73
2022/03/12 12:08:18;;;;;;;;;22.00;19.75;;;;;;;;5095092;27;45351;-73
2022/03/12 12:10:43;;;;;;;;;20.25;17.75;;;;;;;;5094731;27;45394;-73
2022/03/12 12:13:12;;;;;;;;;21.00;19.00;;;;;;;;5078652;27;45443;-73
2022/03/12 12:15:39;;;;;;;;;21.75;19.50;;;;;;;;5095335;27;45488;-73
2022/03/12 12:18:05;;;;;;;;;20.00;17.25;;;;;;;;5095843;27;46164;-73
2022/03/12 12:20:31;;;;;;;;;21.50;19.75;;;;;;;;5094931;27;45546;-72
2022/03/12 12:22:57;;;;;;;;;21.75;19.75;;;;;;;;5095116;27;45329;-73
2022/03/12 12:25:22;;;;;;;;;21.50;19.00;;;;;;;;5094240;27;48832;-73
2022/03/12 12:27:54;;;;;;;;;22.25;18.25;;;;;;;;5078326;27;46125;-73
2022/03/12 12:30:29;;;;;;;;;20.00;16.00;;;;;;;;5091607;27;45340;-74
2022/03/12 12:32:54;;;;;;;;;15.25;15.25;;;;;;;;5090184;27;45350;-74
2022/03/12 12:35:20;;;;;;;;;17.25;16.25;;;;;;;;5094556;27;45369;-73
2022/03/12 12:37:45;;;;;;;;;16.75;13.75;;;;;;;;5096351;27;46226;-73
2022/03/12 12:40:14;;;;;;;;;18.50;14.25;;;;;;;;5098065;27;45370;-74
2022/03/12 12:42:41;;;;;;;;;16.50;16.00;;;;;;;;5098609;27;45276;-73
2022/03/12 12:45:13;;;;;;;;;17.00;16.00;;;;;;;;5099304;27;45457;-73
2022/03/12 12:47:38;;;;;;;;;14.50;14.50;;;;;;;;5098034;27;46408;-73
2022/03/12 12:50:04;;;;;;;;;15.50;15.50;;;;;;;;5098039;27;45233;-72
2022/03/12 12:52:32;;;;;;;;;17.25;13.50;;;;;;;;5098447;27;45390;-73
2022/03/12 12:54:59;;;;;;;;;13.50;12.25;;;;;;;;5098283;27;45399;-74
2022/03/12 12:57:44;;;;;;;;;15.00;12.00;;;;;;;;5098528;27;47010;-73
2022/03/12 13:00:21;;;;;;;;;12.75;10.00;;;;;;;;5103156;27;45730;-73
2022/03/12 13:02:49;;;;;;;;;14.25;12.50;;;;;;;;5100212;27;45590;-73
2022/03/12 13:05:14;;;;;;;;;11.50;11.50;;;;;;;;5097013;27;45479;-73
2022/03/12 13:07:59;;;;;;;;;9.75;9.00;;;;;;;;5097603;27;48000;-73
2022/03/12 13:10:25;;;;;;;;;12.00;11.50;;;;;;;;5097526;27;45499;-73
2022/03/12 13:12:51;;;;;;;;;10.75;10.75;;;;;;;;5098124;27;45527;-73
2022/03/12 13:15:19;;;;;;;;;14.25;9.50;;;;;;;;5094101;27;45509;-73
2022/03/12 13:17:45;;;;;;;;;9.00;9.00;;;;;;;;5097941;27;45455;-73
2022/03/12 13:20:42;;;;;;;;;10.25;9.75;;;;;;;;5097401;27;45318;-72
2022/03/12 13:23:08;;;;;;;;;7.75;6.75;;;;;;;;5096157;27;45295;-71
2022/03/12 13:25:46;;;;;;;;;8.75;7.00;;;;;;;;5097795;27;45435;-74
2022/03/12 13:28:12;;;;;;;;;6.00;4.00;;;;;;;;5095002;27;47357;-72
2022/03/12 13:30:38;;;;;;;;;6.00;6.00;;;;;;;;5096432;27;45930;-75
2022/03/12 13:33:06;;;;;;;;;7.00;5.75;;;;;;;;5094514;27;45311;-73
2022/03/12 13:35:31;;;;;;;;;8.00;6.00;;;;;;;;5097847;27;45546;-73
2022/03/12 13:37:57;;;;;;;;;6.75;6.00;;;;;;;;5096923;27;46902;-72
2022/03/12 13:40:24;;;;;;;;;5.50;5.00;;;;;;;;5097526;27;45334;-73
2022/03/12 13:42:54;;;;;;;;;5.00;4.50;;;;;;;;5090006;27;45370;-73
2022/03/12 13:45:19;;;;;;;;;5.75;4.00;;;;;;;;5094250;27;45409;-73
2022/03/12 13:47:49;;;;;;;;;4.25;4.00;;;;;;;;5092408;27;45516;-74
2022/03/12 13:50:15;;;;;;;;;3.75;3.75;;;;;;;;5097229;27;45330;-73
2022/03/12 13:52:41;;;;;;;;;4.75;4.75;;;;;;;;5097364;27;45497;-72
2022/03/12 13:55:07;;;;;;;;;7.00;3.50;;;;;;;;5097484;27;45345;-74
2022/03/12 13:57:41;;;;;;;;;7.00;6.00;;;;;;;;5098046;27;46642;-74
2022/03/12 14:00:16;;;;;;;;;4.25;4.00;;;;;;;;5096507;27;45483;-73
2022/03/12 14:02:45;;;;;;;;;6.00;4.25;;;;;;;;5097411;27;45357;-73
2022/03/12 14:05:18;;;;;;;;;4.00;4.00;;;;;;;;5097062;27;45666;-75
2022/03/12 14:07:46;;;;;;;;;3.75;2.75;;;;;;;;5096423;27;46437;-74
2022/03/12 14:10:11;;;;;;;;;5.00;3.50;;;;;;;;5097090;27;45602;-73
2022/03/12 14:12:37;;;;;;;;;5.50;4.50;;;;;;;;5097194;27;45630;-73
2022/03/12 14:15:03;;;;;;;;;3.50;3.25;;;;;;;;5097678;27;45366;-73
2022/03/12 14:17:30;;;;;;;;;4.75;4.00;;;;;;;;5096645;27;47565;-73
2022/03/12 14:19:56;;;;;;;;;4.50;2.00;;;;;;;;5096455;27;45510;-74
2022/03/12 14:22:22;;;;;;;;;4.75;3.00;;;;;;;;5096726;27;45448;-73
2022/03/12 14:24:49;;;;;;;;;3.75;3.75;;;;;;;;5097029;27;45272;-72
2022/03/12 14:27:14;;;;;;;;;5.00;3.25;;;;;;;;5097679;27;45646;-74
2022/03/12 14:29:41;;;;;;;;;5.50;3.00;;;;;;;;5092164;27;45397;-74
2022/03/12 14:32:08;;;;;;;;;2.25;0.75;;;;;;;;5096936;27;45391;-74
2022/03/12 14:34:34;;;;;;;;;4.75;4.25;;;;;;;;5096821;27;45461;-75